Aérodrome :
LOGIN :

S'inscrire | Disclaimer

   EN    FR    IT 

 










Légende :    VFR   VFR Marginal   IFR   IFR Intensif   IFR Très Intensif
Visi : 
Plafond : 
>= 8 km
>= 3000ft
5 à 8 km
1000 à 3000 ft
1500m à 5 km
500 à 1000 ft
800 à 1500m
200 à 500 ft
< 800m
< 200 ft
Symboles :   Orages  Brouillard  Fortes neiges  Fortes précipitations  Vent > 20 kt
SIGMETs :   Divers  Orages  Givrage  Turbulence  Onde Orograph.  Cendres Volcan.






- Altitude de l'aérodrome : 247 ft
- Code IATA : BLL


EKBI - Billund

DERNIER METAR :
  • 290320Z AUTO 01014KT 9999 OVC110/// 01/M09 Q1029

METARs EXPIRÉS :
  • 290250Z AUTO 01015KT 9999 OVC100/// 02/M08 Q1029
  • 290220Z AUTO 01015KT 9999 OVC100/// 02/M08 Q1028
  • 290150Z AUTO 01016KT 9999 BKN100/// 02/M08 Q1028
  • 290120Z AUTO 01017G28KT 9999 OVC098/// 03/M08 Q1027
  • 290050Z AUTO 01017G27KT 340V040 9999 SCT095/// 03/M06 Q1027

TAF TAF EKBI
Valide du 29 à 00h jusqu'au 30 à 00h UTC


282306Z 2900/2924 01012KT 9999 FEW045
TEMPO 2900/2913 02016G26KT
BECMG 2919/2922 27005KT



MET'MAP, la Météo Aéronautique d'un coup d'oeil ! - Copyright ORBIFLY Décembre 2007 - Disclaimer

ORBIFLY MET'MAP TEAM :

Programmation & Développement : Alexandra Zaïnal
Sur une idée originale de : Baudouin d'Aumeries
Assistance à la programmation : Marc-Olivier Méhu
Soutien technique & logistique : Manuel Goepfert

Contact : metmap@orbifly.com




SOURCES & CREDITS :

   NOAA